Time;durP1;ratioP1;P1;durP2;ratioP2;P2;SDS_P1;SDS_P2;PMS_P1;PMS_P2;Temp;Humidity;BMP_temperature;BMP_pressure;BME280_temperature;BME280_humidity;BME280_pressure;Samples;Min_cycle;Max_cycle;Signal;HPM_P1;HPM_P2
2022/10/05 00:02:23;;;;;;;5.90;4.27;;;14.50;99.90;;;;;;4999494;28;20608;-80
2022/10/05 00:04:53;;;;;;;6.50;3.50;;;14.40;99.90;;;;;;5016372;28;21056;-80
2022/10/05 00:07:20;;;;;;;3.73;3.30;;;14.40;99.90;;;;;;5015128;28;20589;-80
2022/10/05 00:09:56;;;;;;;6.87;3.70;;;14.40;99.90;;;;;;5033535;28;20568;-80
2022/10/05 00:12:22;;;;;;;4.90;3.77;;;14.40;99.90;;;;;;5033760;28;20635;-80
2022/10/05 00:14:50;;;;;;;5.63;4.07;;;14.40;99.90;;;;;;5033658;28;20913;-79
2022/10/05 00:17:24;;;;;;;5.77;3.90;;;14.40;99.90;;;;;;5032537;28;21179;-80
2022/10/05 00:19:52;;;;;;;5.23;3.77;;;14.40;99.90;;;;;;5033211;28;20579;-80
2022/10/05 00:22:30;;;;;;;4.97;3.80;;;14.30;99.90;;;;;;5033232;28;20624;-80
2022/10/05 00:24:58;;;;;;;5.30;4.63;;;14.30;99.90;;;;;;5020961;28;20619;-81
2022/10/05 00:27:30;;;;;;;4.75;4.00;;;14.30;99.90;;;;;;5033237;28;20591;-80
2022/10/05 00:29:58;;;;;;;6.17;4.40;;;14.30;99.90;;;;;;5015522;28;20174;-80
2022/10/05 00:32:25;;;;;;;6.45;4.40;;;14.20;99.90;;;;;;5015606;28;20620;-80
2022/10/05 00:34:53;;;;;;;7.17;4.10;;;14.30;99.90;;;;;;5032902;28;20260;-80
2022/10/05 00:37:19;;;;;;;6.00;4.83;;;14.20;99.90;;;;;;5033155;28;20591;-80
2022/10/05 00:39:45;;;;;;;5.83;3.73;;;14.20;99.90;;;;;;5015094;28;20565;-80
2022/10/05 00:42:19;;;;;;;6.47;4.60;;;14.20;99.90;;;;;;5032973;28;20596;-79
2022/10/05 00:44:57;;;;;;;7.38;5.10;;;14.20;99.90;;;;;;5015192;28;20177;-80
2022/10/05 00:47:38;;;;;;;6.45;4.15;;;14.20;99.90;;;;;;5032973;28;20166;-80
2022/10/05 00:50:52;;;;;;;6.32;4.32;;;14.20;99.90;;;;;;5015190;28;20173;-80
2022/10/05 00:53:45;;;;;;;11.60;5.27;;;14.10;99.90;;;;;;5002028;28;20220;-80
2022/10/05 00:56:35;;;;;;;5.28;4.78;;;14.10;99.90;;;;;;5032791;28;20580;-81
2022/10/05 00:59:12;;;;;;;5.32;4.43;;;14.10;99.90;;;;;;5033075;28;20166;-80
2022/10/05 01:02:01;;;;;;;7.13;4.40;;;14.10;99.90;;;;;;5036843;28;20197;-80
2022/10/05 01:04:45;;;;;;;7.90;4.50;;;14.10;99.90;;;;;;5015465;28;20565;-80
2022/10/05 01:07:51;;;;;;;5.77;3.90;;;14.00;99.90;;;;;;5015304;28;20997;-80
2022/10/05 01:10:39;;;;;;;7.67;4.77;;;14.10;99.90;;;;;;5032314;28;20565;-80
2022/10/05 01:13:23;;;;;;;5.03;3.67;;;14.00;99.90;;;;;;5032945;28;20624;-80
2022/10/05 01:16:11;;;;;;;6.18;4.50;;;14.00;99.90;;;;;;5015931;28;20252;-80
2022/10/05 01:18:52;;;;;;;6.28;4.05;;;14.00;99.90;;;;;;5036340;28;20280;-80
2022/10/05 01:21:19;;;;;;;6.50;4.75;;;14.00;99.90;;;;;;5015948;28;20260;-81
2022/10/05 01:23:54;;;;;;;6.72;5.10;;;14.00;99.90;;;;;;5032404;28;20733;-80
2022/10/05 01:26:41;;;;;;;7.00;4.90;;;14.00;99.90;;;;;;5014993;28;20604;-80
2022/10/05 01:29:22;;;;;;;8.10;3.90;;;13.90;99.90;;;;;;5032361;28;20571;-80
2022/10/05 01:32:12;;;;;;;5.13;4.38;;;13.90;99.90;;;;;;5032047;28;20201;-80
2022/10/05 01:35:01;;;;;;;7.50;4.95;;;13.90;99.90;;;;;;5032064;28;20173;-80
2022/10/05 01:37:45;;;;;;;9.77;4.85;;;13.90;99.90;;;;;;5014520;28;20181;-80
2022/10/05 01:40:32;;;;;;;5.82;4.38;;;13.80;99.90;;;;;;4999309;28;20172;-80
2022/10/05 01:43:10;;;;;;;7.32;4.13;;;13.80;99.90;;;;;;5031915;28;20186;-80
2022/10/05 01:45:51;;;;;;;5.55;4.10;;;13.80;99.90;;;;;;5014173;28;20166;-80
2022/10/05 01:48:32;;;;;;;7.07;4.60;;;13.80;99.90;;;;;;5032055;28;20162;-80
2022/10/05 01:51:26;;;;;;;6.10;3.80;;;13.80;99.90;;;;;;4997549;28;20201;-79
2022/10/05 01:53:57;;;;;;;5.63;5.13;;;13.70;99.90;;;;;;5032054;28;20226;-79
2022/10/05 01:56:42;;;;;;;5.72;4.13;;;13.70;99.90;;;;;;4981666;28;20186;-80
2022/10/05 01:59:30;;;;;;;5.38;4.43;;;13.70;99.90;;;;;;5032027;28;20197;-80
2022/10/05 02:02:00;;;;;;;5.65;4.10;;;13.70;99.90;;;;;;5014077;28;20250;-80
2022/10/05 02:04:36;;;;;;;6.20;4.40;;;13.70;99.90;;;;;;5014040;28;20178;-80
2022/10/05 02:07:09;;;;;;;5.40;4.22;;;13.60;99.90;;;;;;5013923;28;20169;-80
2022/10/05 02:09:54;;;;;;;4.70;4.18;;;13.60;99.90;;;;;;5013574;28;20352;-80
2022/10/05 02:12:26;;;;;;;8.77;4.00;;;13.60;99.90;;;;;;5008427;28;20201;-80
2022/10/05 02:15:01;;;;;;;6.00;5.20;;;13.60;99.90;;;;;;5015848;28;20178;-81
2022/10/05 02:17:49;;;;;;;13.93;5.38;;;13.60;99.90;;;;;;5015004;28;20176;-80
2022/10/05 02:20:25;;;;;;;6.63;5.28;;;13.50;99.90;;;;;;5014013;28;20166;-80
2022/10/05 02:22:54;;;;;;;7.47;5.18;;;13.50;99.90;;;;;;5031110;28;20774;-80
2022/10/05 02:25:35;;;;;;;7.30;4.53;;;13.50;99.90;;;;;;5013859;28;20249;-80
2022/10/05 02:28:13;;;;;;;4.80;4.40;;;13.50;99.90;;;;;;4997776;28;20660;-80
2022/10/05 02:30:55;;;;;;;6.50;4.95;;;13.50;99.90;;;;;;4999926;28;20780;-80
2022/10/05 02:33:29;;;;;;;5.50;4.72;;;13.50;99.90;;;;;;5017893;28;20200;-80
2022/10/05 02:36:15;;;;;;;5.95;5.05;;;13.50;99.90;;;;;;5001325;28;20173;-80
2022/10/05 02:39:17;;;;;;;5.18;4.35;;;13.50;99.90;;;;;;5001649;28;20170;-80
2022/10/05 02:41:56;;;;;;;9.38;4.22;;;13.50;99.90;;;;;;5014705;28;20201;-80
2022/10/05 02:44:51;;;;;;;4.30;3.90;;;13.50;99.90;;;;;;5018123;28;20536;-80
2022/10/05 02:47:23;;;;;;;4.18;3.83;;;13.50;99.90;;;;;;5035973;28;20176;-80
2022/10/05 02:49:58;;;;;;;5.45;4.50;;;13.50;99.90;;;;;;5017775;28;20211;-80
2022/10/05 02:52:49;;;;;;;4.10;3.70;;;13.50;99.90;;;;;;5020858;28;20216;-80
2022/10/05 02:55:43;;;;;;;4.30;3.88;;;13.50;99.90;;;;;;5017656;28;20209;-80
2022/10/05 02:58:17;;;;;;;6.57;3.90;;;13.50;99.90;;;;;;5017226;28;20169;-80
2022/10/05 03:01:04;;;;;;;7.47;4.25;;;13.50;99.90;;;;;;5017036;28;20173;-79
2022/10/05 03:03:46;;;;;;;5.38;4.28;;;13.40;99.90;;;;;;5034861;28;20198;-79
2022/10/05 03:06:26;;;;;;;6.07;4.50;;;13.40;99.90;;;;;;5017264;28;20223;-79
2022/10/05 03:09:05;;;;;;;7.07;4.60;;;13.40;99.90;;;;;;5016929;28;20227;-80
2022/10/05 03:11:56;;;;;;;7.93;4.72;;;13.40;99.90;;;;;;5034317;28;20739;-80
2022/10/05 03:14:53;;;;;;;6.13;4.45;;;13.40;99.90;;;;;;5016818;28;20178;-79
2022/10/05 03:17:26;;;;;;;7.78;5.55;;;13.40;99.90;;;;;;5017041;28;20201;-80
2022/10/05 03:19:58;;;;;;;7.63;4.50;;;13.40;99.90;;;;;;5034435;28;20166;-80
2022/10/05 03:22:43;;;;;;;4.95;4.05;;;13.40;99.90;;;;;;5016471;28;20217;-80
2022/10/05 03:25:11;;;;;;;5.15;4.32;;;13.40;99.90;;;;;;5017205;28;20211;-80
2022/10/05 03:27:52;;;;;;;8.13;4.40;;;13.40;99.90;;;;;;5017052;28;20529;-80
2022/10/05 03:30:21;;;;;;;6.10;4.53;;;13.40;99.90;;;;;;5003900;28;20239;-79
2022/10/05 03:33:29;;;;;;;6.85;4.80;;;13.50;99.90;;;;;;5016854;28;20193;-80
2022/10/05 03:36:01;;;;;;;5.25;4.72;;;13.50;99.90;;;;;;4987765;28;20181;-81
2022/10/05 03:38:39;;;;;;;9.25;4.85;;;13.50;99.90;;;;;;5000537;28;20173;-80
2022/10/05 03:41:15;;;;;;;5.90;4.70;;;13.60;99.90;;;;;;5016238;28;20172;-80
2022/10/05 03:43:58;;;;;;;5.53;4.65;;;13.60;99.90;;;;;;5016727;28;20161;-79
2022/10/05 03:46:37;;;;;;;5.32;4.40;;;13.60;99.90;;;;;;5034484;28;20832;-82
2022/10/05 03:49:14;;;;;;;4.82;4.32;;;13.70;99.90;;;;;;5016439;28;20741;-80
2022/10/05 03:51:59;;;;;;;9.55;5.20;;;13.70;99.90;;;;;;5000218;28;20197;-80
2022/10/05 03:54:35;;;;;;;8.27;5.00;;;13.70;99.90;;;;;;5016494;28;20212;-79
2022/10/05 03:57:10;;;;;;;6.35;4.47;;;13.80;99.90;;;;;;5016269;28;20165;-79
2022/10/05 04:00:03;;;;;;;5.00;4.43;;;13.80;99.90;;;;;;5016258;28;20173;-80
2022/10/05 04:02:49;;;;;;;5.07;4.57;;;13.80;99.90;;;;;;5033913;28;20653;-81
2022/10/05 04:05:20;;;;;;;8.57;5.18;;;13.80;99.90;;;;;;5034020;28;20188;-80
2022/10/05 04:07:52;;;;;;;5.40;4.78;;;13.80;99.90;;;;;;5019860;28;20524;-79
2022/10/05 04:10:25;;;;;;;6.00;3.92;;;13.90;99.90;;;;;;4998743;28;20265;-80
2022/10/05 04:13:03;;;;;;;7.40;5.55;;;13.90;99.90;;;;;;5015126;28;20654;-80
2022/10/05 04:15:41;;;;;;;6.00;4.85;;;13.90;99.90;;;;;;5015428;28;20169;-80
2022/10/05 04:18:17;;;;;;;6.68;5.60;;;13.90;99.90;;;;;;5013208;28;20180;-80
2022/10/05 04:20:47;;;;;;;7.70;5.45;;;13.80;99.90;;;;;;5028478;28;20824;-79
2022/10/05 04:23:46;;;;;;;7.25;5.50;;;13.80;99.90;;;;;;5010494;28;20568;-78
2022/10/05 04:26:23;;;;;;;10.25;5.93;;;13.60;99.90;;;;;;5013231;28;20173;-79
2022/10/05 04:29:00;;;;;;;6.22;5.07;;;13.70;99.90;;;;;;4995529;28;20587;-80
2022/10/05 04:31:41;;;;;;;7.93;6.28;;;13.70;99.90;;;;;;5011891;28;21271;-79
2022/10/05 04:34:51;;;;;;;8.77;6.18;;;13.60;99.90;;;;;;4979495;28;20194;-79
2022/10/05 04:37:56;;;;;;;7.78;5.88;;;13.60;99.90;;;;;;4995794;28;20221;-80
2022/10/05 04:40:31;;;;;;;8.52;6.10;;;13.60;99.90;;;;;;4966479;28;20186;-79
2022/10/05 04:43:04;;;;;;;6.95;4.70;;;13.70;99.90;;;;;;4995855;28;20182;-79
2022/10/05 04:46:17;;;;;;;6.97;5.40;;;13.80;99.90;;;;;;4998248;28;20301;-79
2022/10/05 04:49:30;;;;;;;6.93;4.82;;;13.80;99.90;;;;;;4927272;28;20259;-79
2022/10/05 04:52:29;;;;;;;7.07;3.83;;;13.80;99.90;;;;;;4956582;28;20226;-80
2022/10/05 04:55:07;;;;;;;7.85;4.45;;;13.90;99.90;;;;;;5032788;28;20173;-79
2022/10/05 04:57:59;;;;;;;5.60;4.70;;;13.90;99.90;;;;;;4998824;28;20213;-79
2022/10/05 05:00:34;;;;;;;6.83;4.90;;;14.00;99.90;;;;;;5014633;28;20273;-80
2022/10/05 05:03:25;;;;;;;6.00;5.35;;;14.00;99.90;;;;;;5032510;28;20603;-80
2022/10/05 05:06:15;;;;;;;7.65;5.20;;;14.00;99.90;;;;;;5014970;28;20522;-80
2022/10/05 05:09:16;;;;;;;6.67;5.60;;;14.00;99.90;;;;;;5014934;28;20657;-80
2022/10/05 05:11:54;;;;;;;5.67;4.43;;;14.10;99.90;;;;;;5014611;28;20628;-80
2022/10/05 05:14:38;;;;;;;8.20;4.80;;;14.10;99.90;;;;;;5015013;28;20565;-80
2022/10/05 05:17:44;;;;;;;6.10;5.10;;;14.10;99.90;;;;;;5014168;28;20591;-80
2022/10/05 05:20:34;;;;;;;5.87;4.83;;;14.20;99.90;;;;;;5008701;28;21146;-80
2022/10/05 05:23:27;;;;;;;5.90;4.37;;;14.30;99.90;;;;;;5015155;28;20679;-80
2022/10/05 05:26:18;;;;;;;6.18;4.35;;;14.20;99.90;;;;;;5014657;28;20611;-80
2022/10/05 05:29:05;;;;;;;6.30;4.10;;;14.30;99.90;;;;;;5014541;28;20200;-80
2022/10/05 05:31:55;;;;;;;6.18;5.05;;;14.30;99.90;;;;;;4997551;28;20638;-81
2022/10/05 05:34:44;;;;;;;6.53;4.60;;;14.30;99.90;;;;;;5032228;28;20165;-80
2022/10/05 05:37:29;;;;;;;6.28;4.85;;;14.30;99.90;;;;;;4998118;28;20182;-80
2022/10/05 05:40:06;;;;;;;6.80;4.60;;;14.30;99.90;;;;;;5013656;28;20204;-80
2022/10/05 05:42:57;;;;;;;4.68;4.05;;;14.20;99.90;;;;;;5014100;28;20973;-81
2022/10/05 05:45:40;;;;;;;6.00;4.33;;;14.30;99.90;;;;;;5014489;28;20166;-80
2022/10/05 05:48:27;;;;;;;9.90;5.30;;;14.30;99.90;;;;;;5014421;28;20640;-80
2022/10/05 05:51:12;;;;;;;6.43;5.07;;;14.30;99.90;;;;;;5031874;28;20682;-80
2022/10/05 05:53:48;;;;;;;6.37;4.70;;;14.30;99.90;;;;;;5014227;28;20564;-80
2022/10/05 05:56:20;;;;;;;6.10;5.30;;;14.40;99.90;;;;;;5032428;28;20587;-80
2022/10/05 05:59:02;;;;;;;8.13;4.60;;;14.40;99.90;;;;;;5020078;28;20577;-80
2022/10/05 06:02:03;;;;;;;6.73;5.43;;;14.40;99.90;;;;;;5013453;28;20978;-80
2022/10/05 06:04:44;;;;;;;6.70;5.93;;;14.40;99.90;;;;;;4958664;28;21025;-80
2022/10/05 06:07:18;;;;;;;5.20;4.70;;;14.50;99.90;;;;;;4994773;28;20565;-77
2022/10/05 06:09:52;;;;;;;6.20;5.60;;;14.50;99.90;;;;;;4978056;28;20935;-79
2022/10/05 06:12:46;;;;;;;4.83;4.33;;;14.50;99.90;;;;;;5012402;28;20668;-79
2022/10/05 06:15:31;;;;;;;5.33;4.83;;;14.60;99.90;;;;;;4994429;28;20565;-78
2022/10/05 06:18:01;;;;;;;8.47;5.50;;;14.60;99.90;;;;;;5007055;28;20616;-78
2022/10/05 06:20:35;;;;;;;9.40;5.30;;;14.60;99.90;;;;;;5004558;28;20577;-79
2022/10/05 06:23:08;;;;;;;5.70;4.77;;;14.70;99.90;;;;;;5024676;28;20728;-79
2022/10/05 06:25:52;;;;;;;10.93;5.33;;;14.70;99.90;;;;;;5026844;28;20912;-78
2022/10/05 06:28:18;;;;;;;8.80;5.20;;;14.80;99.90;;;;;;5013520;28;20861;-79
2022/10/05 06:31:18;;;;;;;6.17;4.57;;;14.80;99.90;;;;;;5013718;28;20636;-79
2022/10/05 06:34:39;;;;;;;8.83;4.93;;;14.80;99.90;;;;;;5015056;28;20568;-78
2022/10/05 06:37:15;;;;;;;6.23;4.80;;;14.90;99.90;;;;;;4937467;29;20960;-79
2022/10/05 06:39:49;;;;;;;6.97;5.30;;;15.00;99.90;;;;;;4939430;29;20587;-79
2022/10/05 06:42:33;;;;;;;5.77;5.17;;;15.00;99.90;;;;;;4984122;28;21085;-78
2022/10/05 06:45:30;;;;;;;6.23;5.70;;;15.10;99.90;;;;;;5018676;28;20818;-79
2022/10/05 06:48:27;;;;;;;5.27;4.43;;;15.10;99.90;;;;;;5010878;28;20588;-81
2022/10/05 06:51:30;;;;;;;4.40;4.00;;;15.20;99.90;;;;;;5006425;28;20636;-79
2022/10/05 06:54:54;;;;;;;5.97;4.60;;;15.20;99.90;;;;;;5016710;28;20600;-78
2022/10/05 06:57:53;;;;;;;5.50;4.20;;;15.40;99.90;;;;;;4952993;28;20194;-79
2022/10/05 07:00:23;;;;;;;4.90;4.40;;;15.50;99.90;;;;;;5003665;28;20599;-79
2022/10/05 07:03:00;;;;;;;5.20;4.47;;;15.60;99.90;;;;;;5019026;28;20600;-78
2022/10/05 07:05:41;;;;;;;6.73;3.93;;;15.60;99.90;;;;;;5012092;28;20650;-79
2022/10/05 07:08:44;;;;;;;5.50;4.77;;;15.60;99.90;;;;;;5002590;28;20576;-79
2022/10/05 07:11:19;;;;;;;5.27;4.73;;;15.70;99.90;;;;;;5013076;28;20623;-75
2022/10/05 07:14:03;;;;;;;4.70;4.20;;;15.80;99.90;;;;;;5016384;28;21050;-75
2022/10/05 07:16:44;;;;;;;5.60;5.00;;;15.80;99.90;;;;;;5014862;28;20576;-75
2022/10/05 07:19:51;;;;;;;6.33;4.23;;;15.90;99.90;;;;;;5016510;28;20596;-75
2022/10/05 07:22:35;;;;;;;6.40;4.80;;;15.90;99.90;;;;;;5033571;28;20631;-75
2022/10/05 07:25:31;;;;;;;5.67;5.17;;;16.00;99.90;;;;;;5016229;28;20638;-74
2022/10/05 07:28:02;;;;;;;5.27;3.60;;;16.00;99.90;;;;;;5011999;28;20643;-75
2022/10/05 07:30:30;;;;;;;8.00;5.63;;;16.00;99.90;;;;;;5006636;28;20930;-75
2022/10/05 07:33:04;;;;;;;5.87;3.73;;;16.00;99.90;;;;;;5014061;28;20647;-74
2022/10/05 07:39:07;;;;;;;4.57;4.00;;;16.10;99.90;;;;;;5015626;28;20572;-75
2022/10/05 07:41:43;;;;;;;6.50;4.30;;;16.10;99.90;;;;;;5034128;28;20604;-74
2022/10/05 07:44:29;;;;;;;7.30;4.50;;;16.20;99.90;;;;;;5015703;28;20579;-74
2022/10/05 07:47:13;;;;;;;4.90;3.70;;;16.20;99.90;;;;;;5016094;28;21123;-74
2022/10/05 07:49:52;;;;;;;4.50;4.03;;;16.30;99.90;;;;;;5016096;28;20907;-74
2022/10/05 07:52:35;;;;;;;5.23;3.90;;;16.30;99.90;;;;;;5015743;28;20774;-74
2022/10/05 07:55:22;;;;;;;4.73;3.80;;;16.30;99.90;;;;;;5015722;28;20565;-74
2022/10/05 07:58:22;;;;;;;4.67;4.10;;;16.40;99.90;;;;;;5016046;28;20603;-75
2022/10/05 08:01:15;;;;;;;5.53;4.03;;;16.50;99.90;;;;;;5016850;28;20583;-75
2022/10/05 08:03:55;;;;;;;7.30;5.03;;;16.60;99.90;;;;;;5015504;28;20572;-75
2022/10/05 08:06:53;;;;;;;8.03;7.33;;;16.60;99.90;;;;;;5033561;28;20564;-75
2022/10/05 08:09:31;;;;;;;10.03;4.50;;;16.50;99.90;;;;;;5013612;28;21148;-75
2022/10/05 08:12:27;;;;;;;7.13;4.93;;;16.70;99.90;;;;;;5033071;28;20646;-75
2022/10/05 08:15:05;;;;;;;5.83;5.23;;;16.70;99.90;;;;;;5014974;28;20569;-74
2022/10/05 08:17:42;;;;;;;6.07;5.47;;;16.70;99.90;;;;;;5015651;28;20989;-74
2022/10/05 08:20:35;;;;;;;7.90;4.63;;;16.70;99.90;;;;;;5033205;28;20965;-74
2022/10/05 08:23:19;;;;;;;6.87;4.57;;;16.80;99.90;;;;;;5032962;28;20623;-73
2022/10/05 08:25:54;;;;;;;7.27;5.23;;;16.80;99.90;;;;;;5032966;28;21054;-75
2022/10/05 08:28:29;;;;;;;8.07;5.43;;;16.80;99.90;;;;;;5014919;28;20960;-75
2022/10/05 08:31:25;;;;;;;7.10;4.77;;;16.90;99.90;;;;;;5032728;28;20982;-75
2022/10/05 08:34:30;;;;;;;9.13;4.97;;;16.90;99.90;;;;;;5027912;28;20594;-75
2022/10/05 08:37:17;;;;;;;6.20;5.43;;;17.00;99.90;;;;;;5012843;28;21076;-75
2022/10/05 08:40:13;;;;;;;7.53;5.70;;;17.00;99.90;;;;;;5032946;28;20559;-73
2022/10/05 08:42:50;;;;;;;5.20;4.33;;;17.10;99.90;;;;;;5032677;28;20592;-72
2022/10/05 08:45:40;;;;;;;5.70;5.20;;;17.30;99.90;;;;;;4998457;28;21465;-74
2022/10/05 08:48:19;;;;;;;6.50;4.67;;;17.30;99.90;;;;;;5032749;28;21125;-73
2022/10/05 08:50:57;;;;;;;6.03;4.10;;;17.40;99.90;;;;;;5032393;28;20632;-74
2022/10/05 08:53:47;;;;;;;6.73;5.10;;;17.50;99.90;;;;;;5032027;28;20762;-75
2022/10/05 08:56:12;;;;;;;5.33;4.57;;;17.60;99.90;;;;;;5032602;28;20565;-75
2022/10/05 08:58:53;;;;;;;7.27;4.47;;;17.70;99.90;;;;;;5032349;28;20626;-74
2022/10/05 09:01:40;;;;;;;5.43;4.40;;;17.70;99.90;;;;;;5032000;28;20173;-75
2022/10/05 09:04:48;;;;;;;5.10;4.70;;;17.80;99.90;;;;;;5033307;28;20572;-74
2022/10/05 09:07:37;;;;;;;5.77;4.60;;;17.90;99.90;;;;;;5014845;28;20923;-75
2022/10/05 09:10:52;;;;;;;7.33;3.80;;;18.10;99.90;;;;;;5032431;28;20561;-74
2022/10/05 09:13:22;;;;;;;4.13;3.43;;;18.20;99.90;;;;;;5031902;28;20596;-75
2022/10/05 09:16:13;;;;;;;5.17;4.13;;;18.50;99.90;;;;;;4998364;28;20561;-75
2022/10/05 09:19:24;;;;;;;4.50;3.70;;;18.50;99.90;;;;;;5014459;28;20559;-73
2022/10/05 09:22:08;;;;;;;8.80;3.80;;;18.70;99.90;;;;;;4993692;28;20631;-75
2022/10/05 09:24:51;;;;;;;5.80;4.30;;;18.90;99.90;;;;;;5028514;28;20581;-75
2022/10/05 09:27:18;;;;;;;8.07;5.20;;;19.00;99.90;;;;;;5010893;28;20561;-75
2022/10/05 09:30:22;;;;;;;5.80;4.57;;;19.10;99.90;;;;;;5012302;28;20556;-74
2022/10/05 09:33:25;;;;;;;4.20;3.20;;;19.30;99.90;;;;;;4994513;28;21041;-75
2022/10/05 09:36:23;;;;;;;4.17;2.53;;;19.70;99.90;;;;;;5011957;28;20580;-75
2022/10/05 09:39:11;;;;;;;2.90;2.60;;;20.10;99.90;;;;;;4968312;28;20577;-74
2022/10/05 09:42:16;;;;;;;3.40;2.80;;;20.50;99.90;;;;;;5012070;28;20616;-74
2022/10/05 09:44:48;;;;;;;3.90;2.63;;;20.90;99.90;;;;;;4965090;28;21185;-74
2022/10/05 09:47:22;;;;;;;4.37;2.60;;;21.40;99.90;;;;;;4994939;28;20566;-75
2022/10/05 09:50:12;;;;;;;4.80;2.43;;;21.70;99.90;;;;;;5012079;28;20611;-73
2022/10/05 09:52:50;;;;;;;3.73;2.27;;;22.00;99.90;;;;;;5011454;28;20692;-73
2022/10/05 09:55:29;;;;;;;3.93;3.20;;;22.50;99.90;;;;;;5011583;28;20580;-73
2022/10/05 09:58:27;;;;;;;3.37;2.50;;;22.90;99.90;;;;;;5011816;28;20573;-74
2022/10/05 10:01:25;;;;;;;5.80;2.40;;;23.20;99.90;;;;;;5011640;28;21300;-74
2022/10/05 10:04:08;;;;;;;2.23;2.03;;;23.90;99.90;;;;;;4971482;28;20577;-74
2022/10/05 10:07:12;;;;;;;2.03;1.53;;;24.70;99.90;;;;;;5011677;28;20650;-74
2022/10/05 10:10:09;;;;;;;8.60;2.57;;;25.40;99.90;;;;;;5011926;28;20572;-74
2022/10/05 10:12:59;;;;;;;5.17;2.20;;;26.10;99.90;;;;;;5019639;28;20750;-74
2022/10/05 10:15:43;;;;;;;2.40;1.50;;;26.60;99.90;;;;;;5026030;28;20910;-73
2022/10/05 10:18:44;;;;;;;3.70;1.80;;;27.30;99.90;;;;;;5031387;28;20798;-74
2022/10/05 10:21:32;;;;;;;2.83;1.50;;;27.50;99.90;;;;;;5013118;28;20599;-74
2022/10/05 10:24:13;;;;;;;4.83;1.67;;;27.80;99.90;;;;;;5030227;28;20670;-73
2022/10/05 10:27:04;;;;;;;2.17;1.50;;;27.70;99.90;;;;;;5027881;28;20588;-74
2022/10/05 10:29:42;;;;;;;4.20;1.80;;;27.60;99.90;;;;;;5030777;28;20600;-74
2022/10/05 10:32:41;;;;;;;3.00;1.30;;;27.40;99.90;;;;;;5028012;28;20636;-74
2022/10/05 10:35:36;;;;;;;2.63;1.40;;;27.10;93.00;;;;;;5011247;28;20565;-74
2022/10/05 10:38:33;;;;;;;2.40;1.33;;;27.00;98.60;;;;;;5011303;28;20659;-74
2022/10/05 10:41:08;;;;;;;2.20;1.23;;;26.80;98.30;;;;;;5011538;28;20593;-73
2022/10/05 10:43:42;;;;;;;2.13;1.47;;;26.70;97.70;;;;;;5012469;28;20580;-74
2022/10/05 10:46:26;;;;;;;1.60;0.90;;;26.40;96.80;;;;;;5009027;28;20935;-74
2022/10/05 10:48:59;;;;;;;2.87;1.20;;;26.40;98.20;;;;;;5030670;28;20584;-73
2022/10/05 10:51:50;;;;;;;2.93;1.10;;;26.70;98.70;;;;;;5033352;28;20612;-73
2022/10/05 10:54:33;;;;;;;2.73;1.60;;;26.80;98.60;;;;;;5034507;28;20563;-74
2022/10/05 10:57:03;;;;;;;2.20;1.83;;;26.80;97.30;;;;;;5035179;28;20591;-75
2022/10/05 10:59:44;;;;;;;3.80;1.60;;;26.90;96.80;;;;;;5034905;28;21198;-75
2022/10/05 11:02:42;;;;;;;2.27;1.00;;;27.00;97.30;;;;;;5034555;28;20595;-75
2022/10/05 11:05:17;;;;;;;3.90;1.00;;;27.30;98.10;;;;;;5034516;28;20580;-74
2022/10/05 11:07:59;;;;;;;2.07;1.10;;;27.40;96.60;;;;;;5034621;28;20575;-74
2022/10/05 11:10:43;;;;;;;3.27;1.20;;;27.60;97.40;;;;;;5034622;28;20607;-74
2022/10/05 11:13:37;;;;;;;2.20;1.17;;;28.00;97.10;;;;;;5014128;28;20722;-74
2022/10/05 11:16:39;;;;;;;2.10;1.00;;;28.20;95.80;;;;;;5034203;28;20655;-74
2022/10/05 11:19:42;;;;;;;3.27;1.20;;;28.50;90.70;;;;;;5034357;28;20933;-74
2022/10/05 11:22:29;;;;;;;2.00;1.20;;;28.70;95.90;;;;;;5032243;28;20662;-74
2022/10/05 11:25:32;;;;;;;2.03;1.30;;;28.90;94.70;;;;;;5032764;28;20580;-74
2022/10/05 11:28:35;;;;;;;2.20;1.03;;;29.00;93.90;;;;;;5033949;28;20967;-74
2022/10/05 11:31:03;;;;;;;1.83;0.80;;;29.10;93.90;;;;;;5014428;28;20608;-73
2022/10/05 11:33:53;;;;;;;1.90;0.90;;;29.20;92.00;;;;;;5013993;28;20594;-73
2022/10/05 11:36:43;;;;;;;1.40;0.70;;;29.00;88.50;;;;;;5014396;28;20565;-74
2022/10/05 11:39:29;;;;;;;1.73;0.70;;;28.90;90.80;;;;;;5029736;28;20921;-73
2022/10/05 11:42:13;;;;;;;1.40;0.70;;;28.90;90.50;;;;;;5033679;28;20612;-74
2022/10/05 11:45:05;;;;;;;1.43;0.60;;;28.80;88.50;;;;;;5033567;28;20587;-73
2022/10/05 11:47:39;;;;;;;3.20;0.73;;;28.80;89.90;;;;;;5033934;28;20575;-74
2022/10/05 11:50:14;;;;;;;1.80;0.70;;;29.00;89.20;;;;;;5015980;28;20576;-74
2022/10/05 11:52:52;;;;;;;2.47;0.63;;;29.10;88.20;;;;;;5033545;28;20624;-74
2022/10/05 11:55:40;;;;;;;1.90;0.67;;;29.20;86.30;;;;;;5033050;28;20575;-75
2022/10/05 11:58:28;;;;;;;1.30;0.60;;;29.20;87.70;;;;;;5027918;28;20590;-74
2022/10/05 12:00:53;;;;;;;1.30;0.50;;;29.20;85.30;;;;;;5016107;28;20576;-74
2022/10/05 12:03:41;;;;;;;3.40;0.60;;;29.20;84.70;;;;;;5014130;28;20624;-74
2022/10/05 12:06:20;;;;;;;1.37;0.67;;;29.10;84.30;;;;;;5015879;28;20174;-73
2022/10/05 12:09:31;;;;;;;1.20;0.50;;;29.20;84.30;;;;;;5036166;28;20565;-73
2022/10/05 12:12:11;;;;;;;1.50;0.70;;;29.30;84.90;;;;;;5033238;28;20686;-74
2022/10/05 12:15:01;;;;;;;2.37;0.80;;;29.30;80.50;;;;;;5033152;28;20637;-74
2022/10/05 12:17:50;;;;;;;2.13;0.70;;;29.20;79.70;;;;;;5033499;28;20604;-74
2022/10/05 12:20:19;;;;;;;1.50;0.57;;;29.10;80.10;;;;;;5031285;28;20965;-74
2022/10/05 12:22:57;;;;;;;1.47;0.60;;;29.10;79.00;;;;;;5032971;28;20632;-74
2022/10/05 12:25:30;;;;;;;1.30;0.60;;;29.00;76.20;;;;;;5014946;28;20987;-74
2022/10/05 12:28:03;;;;;;;1.40;0.60;;;28.80;77.50;;;;;;5033203;28;21004;-74
2022/10/05 12:30:48;;;;;;;1.43;0.63;;;28.70;77.50;;;;;;5033340;28;20584;-73
2022/10/05 12:33:22;;;;;;;2.50;0.70;;;28.60;77.60;;;;;;5033119;28;20635;-73
2022/10/05 12:36:00;;;;;;;1.77;0.70;;;28.20;74.60;;;;;;5032740;28;20568;-73
2022/10/05 12:38:48;;;;;;;2.10;0.70;;;27.80;74.60;;;;;;5033349;28;20573;-73
2022/10/05 12:41:27;;;;;;;4.63;0.80;;;27.30;74.10;;;;;;5033179;28;20595;-72
2022/10/05 12:44:05;;;;;;;1.60;0.83;;;26.90;74.30;;;;;;5032738;28;20931;-72
2022/10/05 12:46:42;;;;;;;2.50;0.80;;;26.60;73.60;;;;;;5033462;28;20579;-72
2022/10/05 12:49:26;;;;;;;2.57;0.70;;;26.20;74.00;;;;;;5032619;28;20588;-72
2022/10/05 12:52:00;;;;;;;1.43;0.70;;;25.80;74.50;;;;;;5032447;28;20623;-71
2022/10/05 12:54:53;;;;;;;1.50;0.87;;;25.40;74.80;;;;;;5014834;28;20565;-72
2022/10/05 12:57:42;;;;;;;1.30;0.70;;;25.00;75.70;;;;;;5032721;28;20568;-73
2022/10/05 13:00:19;;;;;;;3.63;0.70;;;24.80;75.50;;;;;;5032424;28;20597;-73
2022/10/05 13:02:45;;;;;;;1.50;0.83;;;24.50;76.20;;;;;;5032754;28;20606;-73
2022/10/05 13:05:14;;;;;;;1.40;0.70;;;24.30;77.00;;;;;;5032132;28;20575;-74
2022/10/05 13:07:55;;;;;;;1.70;0.60;;;24.10;77.70;;;;;;5029117;28;20739;-73
2022/10/05 13:10:34;;;;;;;1.30;0.60;;;24.00;78.40;;;;;;5026619;28;20591;-73
2022/10/05 13:12:59;;;;;;;1.37;0.70;;;23.80;79.40;;;;;;5031843;28;20619;-73
2022/10/05 13:16:06;;;;;;;1.80;0.87;;;23.70;79.50;;;;;;5032032;28;21120;-74
2022/10/05 13:18:50;;;;;;;2.60;0.80;;;23.60;80.70;;;;;;5032233;28;20180;-72
2022/10/05 13:21:45;;;;;;;2.60;0.70;;;23.50;81.20;;;;;;5013480;28;21225;-74
2022/10/05 13:24:23;;;;;;;1.37;0.70;;;23.40;83.80;;;;;;5030738;28;20687;-73
2022/10/05 13:27:12;;;;;;;1.97;0.70;;;23.40;83.30;;;;;;5031999;28;20576;-73
2022/10/05 13:29:52;;;;;;;3.73;0.90;;;23.30;84.20;;;;;;5031904;28;20663;-73
2022/10/05 13:32:23;;;;;;;2.17;0.73;;;23.20;84.40;;;;;;5013898;28;20677;-73
2022/10/05 13:35:16;;;;;;;3.00;0.90;;;23.20;85.80;;;;;;5019818;28;20597;-73
2022/10/05 13:37:42;;;;;;;2.57;0.90;;;23.20;86.50;;;;;;5029445;28;21147;-73
2022/10/05 13:40:27;;;;;;;2.57;0.87;;;23.20;86.30;;;;;;5044059;28;20571;-73
2022/10/05 13:43:04;;;;;;;1.60;0.80;;;23.20;87.50;;;;;;5018301;28;20268;-72
2022/10/05 13:46:00;;;;;;;1.40;0.70;;;23.20;87.90;;;;;;5013588;28;20568;-72
2022/10/05 13:49:03;;;;;;;1.70;0.80;;;23.30;88.00;;;;;;5031778;28;20576;-73
2022/10/05 13:51:51;;;;;;;1.60;0.70;;;23.30;88.60;;;;;;5031146;28;20630;-73
2022/10/05 13:54:33;;;;;;;2.33;0.90;;;23.30;88.90;;;;;;5031511;28;20564;-73
2022/10/05 13:57:09;;;;;;;2.13;0.70;;;23.30;89.20;;;;;;5026245;28;21026;-73
2022/10/05 13:59:46;;;;;;;1.80;0.80;;;23.30;89.30;;;;;;5028247;28;21443;-73
2022/10/05 14:02:19;;;;;;;1.60;0.70;;;23.20;89.10;;;;;;5023977;28;20993;-73
2022/10/05 14:04:56;;;;;;;1.70;0.80;;;23.20;89.70;;;;;;5031340;28;20577;-73
2022/10/05 14:07:30;;;;;;;1.57;0.70;;;23.20;89.60;;;;;;5031130;28;20580;-73
2022/10/05 14:09:57;;;;;;;2.30;0.70;;;23.10;90.00;;;;;;5013786;28;20604;-73
2022/10/05 14:12:26;;;;;;;2.20;0.60;;;23.20;90.00;;;;;;5013309;28;20735;-74
2022/10/05 14:14:57;;;;;;;2.73;0.80;;;23.20;90.20;;;;;;5011834;28;20942;-72